sensor_id;sensor_type;location;lat;lon;timestamp;P1;durP1;ratioP1;P2;durP2;ratioP2
52542;SDS011;38449;52.696;6.186;2023-06-01T00:00:00;8.60;;;4.55;;
52542;SDS011;38449;52.696;6.186;2023-06-01T00:02:27;8.95;;;4.85;;
52542;SDS011;38449;52.696;6.186;2023-06-01T00:04:53;12.43;;;4.93;;
52542;SDS011;38449;52.696;6.186;2023-06-01T00:07:19;9.85;;;4.32;;
52542;SDS011;38449;52.696;6.186;2023-06-01T00:09:46;9.75;;;4.80;;
52542;SDS011;38449;52.696;6.186;2023-06-01T00:12:12;9.45;;;4.80;;
52542;SDS011;38449;52.696;6.186;2023-06-01T00:14:39;8.75;;;4.97;;
52542;SDS011;38449;52.696;6.186;2023-06-01T00:17:06;10.32;;;4.93;;
52542;SDS011;38449;52.696;6.186;2023-06-01T00:19:33;8.75;;;5.13;;
52542;SDS011;38449;52.696;6.186;2023-06-01T00:22:00;8.27;;;5.03;;
52542;SDS011;38449;52.696;6.186;2023-06-01T00:24:27;13.63;;;5.15;;
52542;SDS011;38449;52.696;6.186;2023-06-01T00:26:53;9.80;;;4.97;;
52542;SDS011;38449;52.696;6.186;2023-06-01T00:29:19;10.98;;;5.07;;
52542;SDS011;38449;52.696;6.186;2023-06-01T00:31:46;9.38;;;5.55;;
52542;SDS011;38449;52.696;6.186;2023-06-01T00:34:12;10.98;;;5.35;;
52542;SDS011;38449;52.696;6.186;2023-06-01T00:36:38;9.38;;;5.03;;
52542;SDS011;38449;52.696;6.186;2023-06-01T00:39:05;9.43;;;5.40;;
52542;SDS011;38449;52.696;6.186;2023-06-01T00:41:31;9.48;;;5.70;;
52542;SDS011;38449;52.696;6.186;2023-06-01T00:43:58;10.07;;;5.32;;
52542;SDS011;38449;52.696;6.186;2023-06-01T00:46:26;10.73;;;5.75;;
52542;SDS011;38449;52.696;6.186;2023-06-01T00:48:53;11.88;;;5.50;;
52542;SDS011;38449;52.696;6.186;2023-06-01T00:51:20;8.85;;;5.18;;
52542;SDS011;38449;52.696;6.186;2023-06-01T00:53:46;11.75;;;6.95;;
52542;SDS011;38449;52.696;6.186;2023-06-01T00:56:13;11.55;;;5.15;;
52542;SDS011;38449;52.696;6.186;2023-06-01T00:58:40;10.85;;;5.07;;
52542;SDS011;38449;52.696;6.186;2023-06-01T01:01:06;9.02;;;5.25;;
52542;SDS011;38449;52.696;6.186;2023-06-01T01:06:22;7.25;;;4.18;;
52542;SDS011;38449;52.696;6.186;2023-06-01T01:09:22;10.23;;;4.63;;
52542;SDS011;38449;52.696;6.186;2023-06-01T01:11:59;9.38;;;4.68;;
52542;SDS011;38449;52.696;6.186;2023-06-01T01:14:36;11.30;;;5.32;;
52542;SDS011;38449;52.696;6.186;2023-06-01T01:20:10;9.50;;;5.13;;
52542;SDS011;38449;52.696;6.186;2023-06-01T01:25:46;13.05;;;5.32;;
52542;SDS011;38449;52.696;6.186;2023-06-01T01:28:23;10.27;;;4.80;;
52542;SDS011;38449;52.696;6.186;2023-06-01T01:31:11;9.52;;;4.78;;
52542;SDS011;38449;52.696;6.186;2023-06-01T01:33:39;9.93;;;5.25;;
52542;SDS011;38449;52.696;6.186;2023-06-01T01:36:07;9.15;;;5.43;;
52542;SDS011;38449;52.696;6.186;2023-06-01T01:38:36;12.85;;;5.30;;
52542;SDS011;38449;52.696;6.186;2023-06-01T01:41:02;12.32;;;5.40;;
52542;SDS011;38449;52.696;6.186;2023-06-01T01:43:29;11.48;;;5.53;;
52542;SDS011;38449;52.696;6.186;2023-06-01T01:46:05;12.15;;;5.25;;
52542;SDS011;38449;52.696;6.186;2023-06-01T01:48:35;9.40;;;5.50;;
52542;SDS011;38449;52.696;6.186;2023-06-01T01:51:19;8.75;;;5.10;;
52542;SDS011;38449;52.696;6.186;2023-06-01T01:53:48;12.73;;;5.55;;
52542;SDS011;38449;52.696;6.186;2023-06-01T01:56:17;11.65;;;5.88;;
52542;SDS011;38449;52.696;6.186;2023-06-01T01:58:44;10.40;;;5.13;;
52542;SDS011;38449;52.696;6.186;2023-06-01T02:01:13;11.52;;;5.68;;
52542;SDS011;38449;52.696;6.186;2023-06-01T02:03:39;10.48;;;5.25;;
52542;SDS011;38449;52.696;6.186;2023-06-01T02:06:06;11.65;;;5.68;;
52542;SDS011;38449;52.696;6.186;2023-06-01T02:08:32;13.00;;;6.30;;
52542;SDS011;38449;52.696;6.186;2023-06-01T02:10:58;10.38;;;5.53;;
52542;SDS011;38449;52.696;6.186;2023-06-01T02:13:24;9.05;;;5.22;;
52542;SDS011;38449;52.696;6.186;2023-06-01T02:15:51;11.90;;;5.25;;
52542;SDS011;38449;52.696;6.186;2023-06-01T02:18:17;8.90;;;4.95;;
52542;SDS011;38449;52.696;6.186;2023-06-01T02:20:44;8.40;;;5.30;;
52542;SDS011;38449;52.696;6.186;2023-06-01T02:23:11;11.18;;;5.95;;
52542;SDS011;38449;52.696;6.186;2023-06-01T02:25:37;12.35;;;6.10;;
52542;SDS011;38449;52.696;6.186;2023-06-01T02:28:03;10.93;;;5.20;;
52542;SDS011;38449;52.696;6.186;2023-06-01T02:30:30;9.48;;;5.40;;
52542;SDS011;38449;52.696;6.186;2023-06-01T02:32:56;10.00;;;5.18;;
52542;SDS011;38449;52.696;6.186;2023-06-01T02:35:22;11.45;;;5.18;;
52542;SDS011;38449;52.696;6.186;2023-06-01T02:37:49;10.38;;;5.45;;
52542;SDS011;38449;52.696;6.186;2023-06-01T02:40:15;12.70;;;5.43;;
52542;SDS011;38449;52.696;6.186;2023-06-01T02:42:41;10.23;;;4.95;;
52542;SDS011;38449;52.696;6.186;2023-06-01T02:45:08;11.13;;;5.22;;
52542;SDS011;38449;52.696;6.186;2023-06-01T02:47:35;8.82;;;5.00;;
52542;SDS011;38449;52.696;6.186;2023-06-01T02:50:01;11.43;;;5.15;;
52542;SDS011;38449;52.696;6.186;2023-06-01T02:52:30;9.40;;;5.43;;
52542;SDS011;38449;52.696;6.186;2023-06-01T02:54:57;9.15;;;5.85;;
52542;SDS011;38449;52.696;6.186;2023-06-01T02:57:23;11.07;;;4.90;;
52542;SDS011;38449;52.696;6.186;2023-06-01T02:59:49;12.05;;;5.85;;
52542;SDS011;38449;52.696;6.186;2023-06-01T03:02:16;9.95;;;5.53;;
52542;SDS011;38449;52.696;6.186;2023-06-01T03:04:42;10.90;;;5.53;;
52542;SDS011;38449;52.696;6.186;2023-06-01T03:07:09;11.15;;;5.43;;
52542;SDS011;38449;52.696;6.186;2023-06-01T03:09:35;12.20;;;5.40;;
52542;SDS011;38449;52.696;6.186;2023-06-01T03:12:02;12.23;;;5.78;;
52542;SDS011;38449;52.696;6.186;2023-06-01T03:14:28;11.38;;;5.45;;
52542;SDS011;38449;52.696;6.186;2023-06-01T03:16:54;10.80;;;5.18;;
52542;SDS011;38449;52.696;6.186;2023-06-01T03:19:21;9.57;;;4.78;;
52542;SDS011;38449;52.696;6.186;2023-06-01T03:21:47;11.93;;;5.13;;
52542;SDS011;38449;52.696;6.186;2023-06-01T03:24:13;9.90;;;5.05;;
52542;SDS011;38449;52.696;6.186;2023-06-01T03:26:40;8.98;;;4.93;;
52542;SDS011;38449;52.696;6.186;2023-06-01T03:29:06;10.05;;;5.45;;
52542;SDS011;38449;52.696;6.186;2023-06-01T03:31:32;7.47;;;4.38;;
52542;SDS011;38449;52.696;6.186;2023-06-01T03:34:00;12.60;;;5.05;;
52542;SDS011;38449;52.696;6.186;2023-06-01T03:36:27;9.40;;;5.45;;
52542;SDS011;38449;52.696;6.186;2023-06-01T03:38:53;7.70;;;4.50;;
52542;SDS011;38449;52.696;6.186;2023-06-01T03:41:19;10.00;;;5.30;;
52542;SDS011;38449;52.696;6.186;2023-06-01T03:43:47;10.45;;;5.15;;
52542;SDS011;38449;52.696;6.186;2023-06-01T03:46:13;13.15;;;5.50;;
52542;SDS011;38449;52.696;6.186;2023-06-01T03:48:40;11.15;;;5.32;;
52542;SDS011;38449;52.696;6.186;2023-06-01T03:51:06;10.40;;;5.53;;
52542;SDS011;38449;52.696;6.186;2023-06-01T03:53:32;9.77;;;5.22;;
52542;SDS011;38449;52.696;6.186;2023-06-01T03:55:59;14.30;;;5.32;;
52542;SDS011;38449;52.696;6.186;2023-06-01T03:58:26;9.00;;;5.15;;
52542;SDS011;38449;52.696;6.186;2023-06-01T04:00:52;9.35;;;5.30;;
52542;SDS011;38449;52.696;6.186;2023-06-01T04:03:19;10.02;;;5.00;;
52542;SDS011;38449;52.696;6.186;2023-06-01T04:05:47;9.65;;;4.22;;
52542;SDS011;38449;52.696;6.186;2023-06-01T04:08:15;9.88;;;4.60;;
52542;SDS011;38449;52.696;6.186;2023-06-01T04:10:42;9.32;;;4.75;;
52542;SDS011;38449;52.696;6.186;2023-06-01T04:13:08;10.20;;;4.93;;
52542;SDS011;38449;52.696;6.186;2023-06-01T04:15:35;9.68;;;4.93;;
52542;SDS011;38449;52.696;6.186;2023-06-01T04:18:01;7.53;;;4.18;;
52542;SDS011;38449;52.696;6.186;2023-06-01T04:20:27;10.45;;;4.78;;
52542;SDS011;38449;52.696;6.186;2023-06-01T04:22:53;7.93;;;3.90;;
52542;SDS011;38449;52.696;6.186;2023-06-01T04:25:20;11.35;;;4.95;;
52542;SDS011;38449;52.696;6.186;2023-06-01T04:27:47;12.27;;;4.55;;
52542;SDS011;38449;52.696;6.186;2023-06-01T04:30:15;8.30;;;4.80;;
52542;SDS011;38449;52.696;6.186;2023-06-01T04:32:42;8.30;;;4.25;;
52542;SDS011;38449;52.696;6.186;2023-06-01T04:35:10;10.35;;;4.55;;
52542;SDS011;38449;52.696;6.186;2023-06-01T04:37:37;11.35;;;5.10;;
52542;SDS011;38449;52.696;6.186;2023-06-01T04:40:06;7.55;;;4.38;;
52542;SDS011;38449;52.696;6.186;2023-06-01T04:42:35;6.95;;;4.38;;
52542;SDS011;38449;52.696;6.186;2023-06-01T04:45:11;6.70;;;3.60;;
52542;SDS011;38449;52.696;6.186;2023-06-01T04:47:39;10.55;;;4.28;;
52542;SDS011;38449;52.696;6.186;2023-06-01T04:50:06;8.10;;;4.00;;
52542;SDS011;38449;52.696;6.186;2023-06-01T04:52:34;10.32;;;4.60;;
52542;SDS011;38449;52.696;6.186;2023-06-01T04:55:07;6.20;;;3.92;;
52542;SDS011;38449;52.696;6.186;2023-06-01T04:57:35;6.35;;;3.83;;
52542;SDS011;38449;52.696;6.186;2023-06-01T05:00:02;8.30;;;4.90;;
52542;SDS011;38449;52.696;6.186;2023-06-01T05:02:32;6.80;;;4.00;;
52542;SDS011;38449;52.696;6.186;2023-06-01T05:04:58;8.57;;;4.43;;
52542;SDS011;38449;52.696;6.186;2023-06-01T05:07:24;7.90;;;4.07;;
52542;SDS011;38449;52.696;6.186;2023-06-01T05:09:51;10.82;;;4.10;;
52542;SDS011;38449;52.696;6.186;2023-06-01T05:12:17;8.88;;;4.03;;
52542;SDS011;38449;52.696;6.186;2023-06-01T05:14:43;8.75;;;4.05;;
52542;SDS011;38449;52.696;6.186;2023-06-01T05:17:09;8.45;;;3.80;;
52542;SDS011;38449;52.696;6.186;2023-06-01T05:19:36;11.07;;;4.03;;
52542;SDS011;38449;52.696;6.186;2023-06-01T05:22:02;6.55;;;3.65;;
52542;SDS011;38449;52.696;6.186;2023-06-01T05:24:28;5.00;;;3.42;;
52542;SDS011;38449;52.696;6.186;2023-06-01T05:26:55;7.10;;;3.63;;
52542;SDS011;38449;52.696;6.186;2023-06-01T05:29:21;6.90;;;3.80;;
52542;SDS011;38449;52.696;6.186;2023-06-01T05:31:48;6.13;;;3.63;;
52542;SDS011;38449;52.696;6.186;2023-06-01T05:34:15;7.50;;;4.30;;
52542;SDS011;38449;52.696;6.186;2023-06-01T05:36:41;6.43;;;4.15;;
52542;SDS011;38449;52.696;6.186;2023-06-01T05:39:08;7.57;;;3.95;;
52542;SDS011;38449;52.696;6.186;2023-06-01T05:41:34;7.90;;;3.63;;
52542;SDS011;38449;52.696;6.186;2023-06-01T05:44:00;6.80;;;4.10;;
52542;SDS011;38449;52.696;6.186;2023-06-01T05:46:27;7.85;;;4.25;;
52542;SDS011;38449;52.696;6.186;2023-06-01T05:48:53;8.52;;;3.75;;
52542;SDS011;38449;52.696;6.186;2023-06-01T05:51:21;10.90;;;4.38;;
52542;SDS011;38449;52.696;6.186;2023-06-01T05:53:47;6.35;;;3.95;;
52542;SDS011;38449;52.696;6.186;2023-06-01T05:56:13;6.70;;;3.90;;
52542;SDS011;38449;52.696;6.186;2023-06-01T05:58:40;7.95;;;4.05;;
52542;SDS011;38449;52.696;6.186;2023-06-01T06:01:06;7.60;;;4.00;;
52542;SDS011;38449;52.696;6.186;2023-06-01T06:03:32;7.57;;;3.90;;
52542;SDS011;38449;52.696;6.186;2023-06-01T06:05:59;7.90;;;3.65;;
52542;SDS011;38449;52.696;6.186;2023-06-01T06:08:26;10.70;;;4.32;;
52542;SDS011;38449;52.696;6.186;2023-06-01T06:10:53;7.72;;;3.90;;
52542;SDS011;38449;52.696;6.186;2023-06-01T06:13:19;6.38;;;4.20;;
52542;SDS011;38449;52.696;6.186;2023-06-01T06:15:45;7.13;;;4.00;;
52542;SDS011;38449;52.696;6.186;2023-06-01T06:18:11;8.02;;;4.18;;
52542;SDS011;38449;52.696;6.186;2023-06-01T06:20:38;9.05;;;3.80;;
52542;SDS011;38449;52.696;6.186;2023-06-01T06:23:04;8.82;;;4.05;;
52542;SDS011;38449;52.696;6.186;2023-06-01T06:25:31;8.60;;;4.32;;
52542;SDS011;38449;52.696;6.186;2023-06-01T06:27:57;5.97;;;4.07;;
52542;SDS011;38449;52.696;6.186;2023-06-01T06:30:23;9.88;;;4.30;;
52542;SDS011;38449;52.696;6.186;2023-06-01T06:32:50;7.78;;;4.00;;
52542;SDS011;38449;52.696;6.186;2023-06-01T06:35:17;9.35;;;4.13;;
52542;SDS011;38449;52.696;6.186;2023-06-01T06:37:43;5.40;;;3.30;;
52542;SDS011;38449;52.696;6.186;2023-06-01T06:40:09;8.02;;;3.63;;
52542;SDS011;38449;52.696;6.186;2023-06-01T06:42:36;7.07;;;4.00;;
52542;SDS011;38449;52.696;6.186;2023-06-01T06:45:03;6.60;;;3.80;;
52542;SDS011;38449;52.696;6.186;2023-06-01T06:47:30;7.88;;;3.80;;
52542;SDS011;38449;52.696;6.186;2023-06-01T06:49:57;7.70;;;4.32;;
52542;SDS011;38449;52.696;6.186;2023-06-01T06:52:23;7.05;;;3.90;;
52542;SDS011;38449;52.696;6.186;2023-06-01T06:54:49;8.65;;;3.90;;
52542;SDS011;38449;52.696;6.186;2023-06-01T06:57:15;9.05;;;3.83;;
52542;SDS011;38449;52.696;6.186;2023-06-01T06:59:42;9.00;;;3.70;;
52542;SDS011;38449;52.696;6.186;2023-06-01T07:02:08;8.55;;;3.60;;
52542;SDS011;38449;52.696;6.186;2023-06-01T07:04:34;7.65;;;3.80;;
52542;SDS011;38449;52.696;6.186;2023-06-01T07:07:01;6.35;;;3.63;;
52542;SDS011;38449;52.696;6.186;2023-06-01T07:09:29;6.15;;;3.67;;
52542;SDS011;38449;52.696;6.186;2023-06-01T07:11:56;6.53;;;3.70;;
52542;SDS011;38449;52.696;6.186;2023-06-01T07:14:22;8.88;;;3.67;;
52542;SDS011;38449;52.696;6.186;2023-06-01T07:16:48;8.95;;;4.22;;
52542;SDS011;38449;52.696;6.186;2023-06-01T07:19:15;7.10;;;3.78;;
52542;SDS011;38449;52.696;6.186;2023-06-01T07:21:42;8.20;;;4.25;;
52542;SDS011;38449;52.696;6.186;2023-06-01T07:24:08;6.82;;;3.92;;
52542;SDS011;38449;52.696;6.186;2023-06-01T07:26:34;8.13;;;3.90;;
52542;SDS011;38449;52.696;6.186;2023-06-01T07:29:01;8.48;;;4.55;;
52542;SDS011;38449;52.696;6.186;2023-06-01T07:31:27;7.30;;;4.30;;
52542;SDS011;38449;52.696;6.186;2023-06-01T07:33:54;7.20;;;4.13;;
52542;SDS011;38449;52.696;6.186;2023-06-01T07:36:23;8.68;;;4.30;;
52542;SDS011;38449;52.696;6.186;2023-06-01T07:38:49;8.02;;;4.25;;
52542;SDS011;38449;52.696;6.186;2023-06-01T07:41:16;8.43;;;4.47;;
52542;SDS011;38449;52.696;6.186;2023-06-01T07:43:42;6.53;;;4.15;;
52542;SDS011;38449;52.696;6.186;2023-06-01T07:46:08;9.45;;;4.45;;
52542;SDS011;38449;52.696;6.186;2023-06-01T07:48:35;8.45;;;4.13;;
52542;SDS011;38449;52.696;6.186;2023-06-01T07:51:03;7.63;;;3.80;;
52542;SDS011;38449;52.696;6.186;2023-06-01T07:53:33;6.68;;;3.80;;
52542;SDS011;38449;52.696;6.186;2023-06-01T07:56:01;6.18;;;3.72;;
52542;SDS011;38449;52.696;6.186;2023-06-01T07:58:28;5.82;;;3.50;;
52542;SDS011;38449;52.696;6.186;2023-06-01T08:00:54;8.05;;;3.85;;
52542;SDS011;38449;52.696;6.186;2023-06-01T08:03:20;9.20;;;4.10;;
52542;SDS011;38449;52.696;6.186;2023-06-01T08:05:47;6.68;;;3.80;;
52542;SDS011;38449;52.696;6.186;2023-06-01T08:08:13;10.82;;;4.15;;
52542;SDS011;38449;52.696;6.186;2023-06-01T08:10:41;10.13;;;3.53;;
52542;SDS011;38449;52.696;6.186;2023-06-01T08:13:07;7.15;;;3.90;;
52542;SDS011;38449;52.696;6.186;2023-06-01T08:15:33;7.13;;;3.80;;
52542;SDS011;38449;52.696;6.186;2023-06-01T08:18:02;6.25;;;4.22;;
52542;SDS011;38449;52.696;6.186;2023-06-01T08:20:30;9.32;;;3.65;;
52542;SDS011;38449;52.696;6.186;2023-06-01T08:22:56;9.35;;;3.85;;
52542;SDS011;38449;52.696;6.186;2023-06-01T08:25:22;9.00;;;4.13;;
52542;SDS011;38449;52.696;6.186;2023-06-01T08:27:49;7.45;;;3.55;;
52542;SDS011;38449;52.696;6.186;2023-06-01T08:30:15;7.43;;;3.60;;
52542;SDS011;38449;52.696;6.186;2023-06-01T08:32:42;8.25;;;3.90;;
52542;SDS011;38449;52.696;6.186;2023-06-01T08:35:08;6.10;;;3.70;;
52542;SDS011;38449;52.696;6.186;2023-06-01T08:37:35;7.95;;;3.70;;
52542;SDS011;38449;52.696;6.186;2023-06-01T08:40:02;8.07;;;4.32;;
52542;SDS011;38449;52.696;6.186;2023-06-01T08:42:42;9.13;;;4.00;;
52542;SDS011;38449;52.696;6.186;2023-06-01T08:45:36;7.93;;;3.78;;
52542;SDS011;38449;52.696;6.186;2023-06-01T08:48:03;8.43;;;4.13;;
52542;SDS011;38449;52.696;6.186;2023-06-01T08:50:34;8.27;;;3.80;;
52542;SDS011;38449;52.696;6.186;2023-06-01T08:53:01;7.38;;;3.40;;
52542;SDS011;38449;52.696;6.186;2023-06-01T08:55:29;7.82;;;3.55;;
52542;SDS011;38449;52.696;6.186;2023-06-01T08:57:55;8.90;;;4.00;;
52542;SDS011;38449;52.696;6.186;2023-06-01T09:00:22;8.40;;;4.13;;
52542;SDS011;38449;52.696;6.186;2023-06-01T09:02:50;9.15;;;3.63;;
52542;SDS011;38449;52.696;6.186;2023-06-01T09:05:17;10.95;;;3.90;;
52542;SDS011;38449;52.696;6.186;2023-06-01T09:07:44;10.00;;;3.83;;
52542;SDS011;38449;52.696;6.186;2023-06-01T09:10:10;8.00;;;3.22;;
52542;SDS011;38449;52.696;6.186;2023-06-01T09:12:37;6.95;;;3.65;;
52542;SDS011;38449;52.696;6.186;2023-06-01T09:17:37;10.23;;;3.80;;
52542;SDS011;38449;52.696;6.186;2023-06-01T09:20:05;5.97;;;3.30;;
52542;SDS011;38449;52.696;6.186;2023-06-01T09:22:43;8.55;;;3.65;;
52542;SDS011;38449;52.696;6.186;2023-06-01T09:25:11;7.47;;;3.70;;
52542;SDS011;38449;52.696;6.186;2023-06-01T09:27:43;5.40;;;2.95;;
52542;SDS011;38449;52.696;6.186;2023-06-01T09:30:11;5.32;;;2.90;;
52542;SDS011;38449;52.696;6.186;2023-06-01T09:32:38;4.13;;;2.78;;
52542;SDS011;38449;52.696;6.186;2023-06-01T09:35:05;4.90;;;2.70;;
52542;SDS011;38449;52.696;6.186;2023-06-01T09:37:34;5.63;;;2.22;;
52542;SDS011;38449;52.696;6.186;2023-06-01T09:40:16;4.13;;;2.40;;
52542;SDS011;38449;52.696;6.186;2023-06-01T09:42:43;4.53;;;2.40;;
52542;SDS011;38449;52.696;6.186;2023-06-01T09:45:14;5.93;;;2.67;;
52542;SDS011;38449;52.696;6.186;2023-06-01T09:47:42;3.50;;;2.38;;
52542;SDS011;38449;52.696;6.186;2023-06-01T09:50:09;4.65;;;2.50;;
52542;SDS011;38449;52.696;6.186;2023-06-01T09:52:36;4.10;;;2.70;;
52542;SDS011;38449;52.696;6.186;2023-06-01T09:55:05;3.33;;;2.10;;
52542;SDS011;38449;52.696;6.186;2023-06-01T09:57:33;5.47;;;2.50;;
52542;SDS011;38449;52.696;6.186;2023-06-01T10:00:00;4.35;;;2.25;;
52542;SDS011;38449;52.696;6.186;2023-06-01T10:02:31;4.13;;;2.60;;
52542;SDS011;38449;52.696;6.186;2023-06-01T10:04:58;6.93;;;2.67;;
52542;SDS011;38449;52.696;6.186;2023-06-01T10:07:27;3.97;;;2.75;;
52542;SDS011;38449;52.696;6.186;2023-06-01T10:09:56;5.43;;;2.83;;
52542;SDS011;38449;52.696;6.186;2023-06-01T10:12:24;4.20;;;2.90;;
52542;SDS011;38449;52.696;6.186;2023-06-01T10:14:51;7.05;;;3.10;;
52542;SDS011;38449;52.696;6.186;2023-06-01T10:17:18;3.95;;;2.60;;
52542;SDS011;38449;52.696;6.186;2023-06-01T10:19:45;5.15;;;2.70;;
52542;SDS011;38449;52.696;6.186;2023-06-01T10:22:12;5.00;;;2.97;;
52542;SDS011;38449;52.696;6.186;2023-06-01T10:24:38;4.65;;;2.80;;
52542;SDS011;38449;52.696;6.186;2023-06-01T10:27:20;4.85;;;2.63;;
52542;SDS011;38449;52.696;6.186;2023-06-01T10:29:52;7.57;;;2.75;;
52542;SDS011;38449;52.696;6.186;2023-06-01T10:35:08;6.43;;;3.10;;
52542;SDS011;38449;52.696;6.186;2023-06-01T10:37:36;6.70;;;3.30;;
52542;SDS011;38449;52.696;6.186;2023-06-01T10:40:18;9.25;;;3.10;;
52542;SDS011;38449;52.696;6.186;2023-06-01T10:42:49;9.65;;;3.40;;
52542;SDS011;38449;52.696;6.186;2023-06-01T10:48:01;6.45;;;3.42;;
52542;SDS011;38449;52.696;6.186;2023-06-01T10:50:29;5.18;;;3.38;;
52542;SDS011;38449;52.696;6.186;2023-06-01T10:52:56;6.50;;;3.83;;
52542;SDS011;38449;52.696;6.186;2023-06-01T10:55:24;6.78;;;3.97;;
52542;SDS011;38449;52.696;6.186;2023-06-01T10:57:51;10.73;;;3.88;;
52542;SDS011;38449;52.696;6.186;2023-06-01T11:00:38;9.40;;;4.28;;
52542;SDS011;38449;52.696;6.186;2023-06-01T11:03:05;9.05;;;4.22;;
52542;SDS011;38449;52.696;6.186;2023-06-01T11:08:07;9.10;;;3.60;;
52542;SDS011;38449;52.696;6.186;2023-06-01T11:10:56;7.95;;;3.72;;
52542;SDS011;38449;52.696;6.186;2023-06-01T11:13:37;7.45;;;3.95;;
52542;SDS011;38449;52.696;6.186;2023-06-01T11:21:16;7.05;;;3.50;;
52542;SDS011;38449;52.696;6.186;2023-06-01T11:23:44;10.02;;;3.63;;
52542;SDS011;38449;52.696;6.186;2023-06-01T11:26:13;9.30;;;4.00;;
52542;SDS011;38449;52.696;6.186;2023-06-01T11:28:42;7.95;;;3.58;;
52542;SDS011;38449;52.696;6.186;2023-06-01T11:31:09;8.32;;;4.00;;
52542;SDS011;38449;52.696;6.186;2023-06-01T11:33:40;6.10;;;3.20;;
52542;SDS011;38449;52.696;6.186;2023-06-01T11:36:07;10.85;;;3.38;;
52542;SDS011;38449;52.696;6.186;2023-06-01T11:38:39;10.52;;;3.83;;
52542;SDS011;38449;52.696;6.186;2023-06-01T11:41:06;10.13;;;3.60;;
52542;SDS011;38449;52.696;6.186;2023-06-01T11:43:33;7.90;;;3.60;;
52542;SDS011;38449;52.696;6.186;2023-06-01T11:46:01;11.82;;;4.00;;
52542;SDS011;38449;52.696;6.186;2023-06-01T11:48:32;10.65;;;3.80;;
52542;SDS011;38449;52.696;6.186;2023-06-01T11:51:02;6.70;;;3.60;;
52542;SDS011;38449;52.696;6.186;2023-06-01T11:53:30;11.05;;;3.10;;
52542;SDS011;38449;52.696;6.186;2023-06-01T11:55:57;6.75;;;3.42;;
52542;SDS011;38449;52.696;6.186;2023-06-01T11:58:25;7.18;;;3.80;;
52542;SDS011;38449;52.696;6.186;2023-06-01T12:00:53;7.70;;;3.40;;
52542;SDS011;38449;52.696;6.186;2023-06-01T12:03:21;11.10;;;3.65;;
52542;SDS011;38449;52.696;6.186;2023-06-01T12:05:49;7.28;;;3.40;;
52542;SDS011;38449;52.696;6.186;2023-06-01T12:08:18;7.63;;;3.55;;
52542;SDS011;38449;52.696;6.186;2023-06-01T12:10:48;8.48;;;3.42;;
52542;SDS011;38449;52.696;6.186;2023-06-01T12:13:17;7.97;;;3.67;;
52542;SDS011;38449;52.696;6.186;2023-06-01T12:15:44;7.50;;;3.88;;
52542;SDS011;38449;52.696;6.186;2023-06-01T12:18:11;8.15;;;3.95;;
52542;SDS011;38449;52.696;6.186;2023-06-01T12:20:38;6.50;;;3.65;;
52542;SDS011;38449;52.696;6.186;2023-06-01T12:23:16;6.50;;;3.40;;
52542;SDS011;38449;52.696;6.186;2023-06-01T12:28:16;8.77;;;4.20;;
52542;SDS011;38449;52.696;6.186;2023-06-01T12:30:45;8.25;;;3.83;;
52542;SDS011;38449;52.696;6.186;2023-06-01T12:36:04;7.75;;;4.05;;
52542;SDS011;38449;52.696;6.186;2023-06-01T12:43:37;6.82;;;4.32;;
52542;SDS011;38449;52.696;6.186;2023-06-01T12:46:04;9.02;;;4.05;;
52542;SDS011;38449;52.696;6.186;2023-06-01T12:48:31;9.15;;;3.88;;
52542;SDS011;38449;52.696;6.186;2023-06-01T12:50:59;8.85;;;4.03;;
52542;SDS011;38449;52.696;6.186;2023-06-01T12:53:27;8.13;;;4.68;;
52542;SDS011;38449;52.696;6.186;2023-06-01T12:55:54;7.35;;;4.10;;
52542;SDS011;38449;52.696;6.186;2023-06-01T12:58:20;7.85;;;4.75;;
52542;SDS011;38449;52.696;6.186;2023-06-01T13:00:46;7.47;;;4.10;;
52542;SDS011;38449;52.696;6.186;2023-06-01T13:03:14;7.85;;;4.10;;
52542;SDS011;38449;52.696;6.186;2023-06-01T13:05:41;8.35;;;3.53;;
52542;SDS011;38449;52.696;6.186;2023-06-01T13:08:12;8.07;;;4.07;;
52542;SDS011;38449;52.696;6.186;2023-06-01T13:10:38;7.93;;;3.72;;
52542;SDS011;38449;52.696;6.186;2023-06-01T13:13:06;10.35;;;3.90;;
52542;SDS011;38449;52.696;6.186;2023-06-01T13:15:33;9.55;;;3.95;;
52542;SDS011;38449;52.696;6.186;2023-06-01T13:18:00;7.13;;;4.30;;
52542;SDS011;38449;52.696;6.186;2023-06-01T13:20:27;7.22;;;3.70;;
52542;SDS011;38449;52.696;6.186;2023-06-01T13:22:53;5.55;;;3.58;;
52542;SDS011;38449;52.696;6.186;2023-06-01T13:25:20;6.13;;;3.50;;
52542;SDS011;38449;52.696;6.186;2023-06-01T13:27:46;5.70;;;3.25;;
52542;SDS011;38449;52.696;6.186;2023-06-01T13:30:12;9.68;;;3.92;;
52542;SDS011;38449;52.696;6.186;2023-06-01T13:32:39;8.00;;;3.67;;
52542;SDS011;38449;52.696;6.186;2023-06-01T13:35:06;7.47;;;3.40;;
52542;SDS011;38449;52.696;6.186;2023-06-01T13:37:32;6.90;;;3.55;;
52542;SDS011;38449;52.696;6.186;2023-06-01T13:39:59;4.50;;;3.17;;
52542;SDS011;38449;52.696;6.186;2023-06-01T13:42:25;6.53;;;3.35;;
52542;SDS011;38449;52.696;6.186;2023-06-01T13:44:51;8.18;;;4.07;;
52542;SDS011;38449;52.696;6.186;2023-06-01T13:47:18;5.95;;;3.70;;
52542;SDS011;38449;52.696;6.186;2023-06-01T13:49:44;6.05;;;3.35;;
52542;SDS011;38449;52.696;6.186;2023-06-01T13:52:10;7.82;;;4.10;;
52542;SDS011;38449;52.696;6.186;2023-06-01T13:54:37;6.95;;;3.60;;
52542;SDS011;38449;52.696;6.186;2023-06-01T13:57:03;8.07;;;3.78;;
52542;SDS011;38449;52.696;6.186;2023-06-01T13:59:31;8.73;;;3.42;;
52542;SDS011;38449;52.696;6.186;2023-06-01T14:02:00;6.20;;;3.25;;
52542;SDS011;38449;52.696;6.186;2023-06-01T14:04:26;6.43;;;3.20;;
52542;SDS011;38449;52.696;6.186;2023-06-01T14:06:52;5.95;;;3.17;;
52542;SDS011;38449;52.696;6.186;2023-06-01T14:09:21;4.50;;;3.20;;
52542;SDS011;38449;52.696;6.186;2023-06-01T14:11:48;5.50;;;3.40;;
52542;SDS011;38449;52.696;6.186;2023-06-01T14:14:14;5.70;;;3.47;;
52542;SDS011;38449;52.696;6.186;2023-06-01T14:16:41;4.78;;;3.30;;
52542;SDS011;38449;52.696;6.186;2023-06-01T14:19:07;8.25;;;3.78;;
52542;SDS011;38449;52.696;6.186;2023-06-01T14:21:33;6.70;;;3.58;;
52542;SDS011;38449;52.696;6.186;2023-06-01T14:24:02;8.18;;;3.58;;
52542;SDS011;38449;52.696;6.186;2023-06-01T14:26:28;9.25;;;3.85;;
52542;SDS011;38449;52.696;6.186;2023-06-01T14:28:56;7.50;;;4.22;;
52542;SDS011;38449;52.696;6.186;2023-06-01T14:31:22;7.82;;;3.80;;
52542;SDS011;38449;52.696;6.186;2023-06-01T14:33:48;8.75;;;3.75;;
52542;SDS011;38449;52.696;6.186;2023-06-01T14:36:15;5.22;;;3.40;;
52542;SDS011;38449;52.696;6.186;2023-06-01T14:38:41;9.55;;;3.70;;
52542;SDS011;38449;52.696;6.186;2023-06-01T14:41:07;7.55;;;3.85;;
52542;SDS011;38449;52.696;6.186;2023-06-01T14:43:34;9.07;;;3.97;;
52542;SDS011;38449;52.696;6.186;2023-06-01T14:46:00;6.78;;;3.35;;
52542;SDS011;38449;52.696;6.186;2023-06-01T14:48:26;8.43;;;3.50;;
52542;SDS011;38449;52.696;6.186;2023-06-01T14:50:52;7.13;;;3.95;;
52542;SDS011;38449;52.696;6.186;2023-06-01T14:53:18;8.50;;;3.47;;
52542;SDS011;38449;52.696;6.186;2023-06-01T14:55:45;7.47;;;3.78;;
52542;SDS011;38449;52.696;6.186;2023-06-01T14:58:11;9.52;;;3.83;;
52542;SDS011;38449;52.696;6.186;2023-06-01T15:00:37;7.05;;;4.13;;
52542;SDS011;38449;52.696;6.186;2023-06-01T15:03:04;8.98;;;3.85;;
52542;SDS011;38449;52.696;6.186;2023-06-01T15:05:30;9.07;;;3.95;;
52542;SDS011;38449;52.696;6.186;2023-06-01T15:07:57;7.20;;;3.58;;
52542;SDS011;38449;52.696;6.186;2023-06-01T15:10:23;8.65;;;4.10;;
52542;SDS011;38449;52.696;6.186;2023-06-01T15:12:50;8.50;;;3.70;;
52542;SDS011;38449;52.696;6.186;2023-06-01T15:15:17;6.70;;;3.30;;
52542;SDS011;38449;52.696;6.186;2023-06-01T15:17:44;6.38;;;3.47;;
52542;SDS011;38449;52.696;6.186;2023-06-01T15:20:10;5.95;;;3.03;;
52542;SDS011;38449;52.696;6.186;2023-06-01T15:22:37;4.47;;;3.05;;